Time;durP1;ratioP1;P1;durP2;ratioP2;P2;SDS_P1;SDS_P2;PMS_P1;PMS_P2;Temp;Humidity;BMP_temperature;BMP_pressure;BME280_temperature;BME280_humidity;BME280_pressure;Samples;Min_cycle;Max_cycle;Signal;HPM_P1;HPM_P2
2022/08/19 00:04:37;;;;;;;;;;;;;;;;;;;;;
2022/08/19 00:08:07;;;;;;;6.93;5.88;;;17.40;99.90;;;;;;4688742;30;20937;-89
2022/08/19 00:15:25;;;;;;;5.57;4.70;;;17.40;99.90;;;;;;4765382;30;20580;-90
2022/08/19 00:19:00;;;;;;;6.05;5.35;;;17.40;99.90;;;;;;4765020;29;20084;-88
2022/08/19 00:22:32;;;;;;;6.70;4.15;;;17.40;99.90;;;;;;4767189;29;20051;-89
2022/08/19 00:29:51;;;;;;;7.53;6.40;;;17.40;99.90;;;;;;4904633;23;20048;-86
2022/08/19 00:32:50;;;;;;;4.88;4.40;;;17.30;99.90;;;;;;4896903;29;20059;-93
2022/08/19 00:36:09;;;;;;;4.55;4.15;;;17.30;99.90;;;;;;4906948;29;20048;-89
2022/08/19 00:45:20;;;;;;;4.22;3.83;;;17.30;99.90;;;;;;4930678;29;20040;-88
2022/08/19 00:48:36;;;;;;;6.60;4.10;;;17.20;99.90;;;;;;4889294;29;20051;-87
2022/08/19 00:51:37;;;;;;;4.97;4.55;;;17.20;99.90;;;;;;4900636;29;20051;-88
2022/08/19 00:54:05;;;;;;;4.22;3.83;;;17.20;99.90;;;;;;4904020;28;20526;-88
2022/08/19 00:56:34;;;;;;;6.90;3.88;;;17.20;99.90;;;;;;4878400;29;20075;-89
2022/08/19 00:59:41;;;;;;;3.85;3.40;;;17.20;99.90;;;;;;4889402;29;20075;-88
2022/08/19 01:02:41;;;;;;;4.25;3.85;;;17.30;99.90;;;;;;4848739;29;20052;-89
2022/08/19 01:06:02;;;;;;;4.35;4.05;;;17.20;99.90;;;;;;4864232;29;20052;-86
2022/08/19 01:08:34;;;;;;;3.75;3.10;;;17.20;99.90;;;;;;4873061;29;20534;-88
2022/08/19 01:11:13;;;;;;;4.53;4.13;;;17.20;99.90;;;;;;4873418;29;20412;-88
2022/08/19 01:15:02;;;;;;;3.53;3.22;;;17.30;99.90;;;;;;4867535;29;20087;-90
2022/08/19 01:18:07;;;;;;;4.13;3.83;;;17.30;99.90;;;;;;4835809;29;20077;-86
2022/08/19 01:20:42;;;;;;;3.53;3.20;;;17.30;99.90;;;;;;4843211;29;20064;-87
2022/08/19 01:23:42;;;;;;;4.55;4.10;;;17.30;99.90;;;;;;4877756;29;20730;-87
2022/08/19 01:26:06;;;;;;;4.93;3.80;;;17.40;99.90;;;;;;4883584;29;20045;-86
2022/08/19 01:29:10;;;;;;;3.75;3.33;;;17.40;99.90;;;;;;4871486;29;20076;-88
2022/08/19 01:32:24;;;;;;;6.63;4.97;;;17.50;99.90;;;;;;4873186;29;20062;-88
2022/08/19 01:39:37;;;;;;;5.72;4.35;;;17.40;99.90;;;;;;4745071;30;20413;-86
2022/08/19 01:42:34;;;;;;;5.72;3.25;;;17.40;99.90;;;;;;4747759;30;20051;-88
2022/08/19 01:48:39;;;;;;;4.07;3.47;;;17.40;99.90;;;;;;4801758;29;20399;-87
2022/08/19 01:51:08;;;;;;;4.10;3.75;;;17.40;99.90;;;;;;4857520;29;20052;-83
2022/08/19 01:53:40;;;;;;;5.63;4.80;;;17.40;99.90;;;;;;4882572;29;20066;-89
2022/08/19 01:56:09;;;;;;;4.43;3.78;;;17.30;99.90;;;;;;4906278;29;20512;-87
2022/08/19 01:58:58;;;;;;;4.68;3.78;;;17.40;99.90;;;;;;4878625;29;20036;-87
2022/08/19 02:01:36;;;;;;;;;;;;;;;;;;;;;
2022/08/19 02:04:50;;;;;;;4.20;3.25;;;17.40;99.90;;;;;;4920545;23;20063;31
2022/08/19 02:07:52;;;;;;;3.40;2.85;;;17.40;99.90;;;;;;4966087;23;20900;31
2022/08/19 02:10:22;;;;;;;6.30;3.83;;;17.40;99.90;;;;;;4873345;29;20049;-88
2022/08/19 02:12:53;;;;;;;4.05;3.65;;;17.50;99.90;;;;;;4860541;29;20046;-88
2022/08/19 02:15:21;;;;;;;4.40;3.97;;;17.50;99.90;;;;;;4859707;29;20049;-86
2022/08/19 02:17:49;;;;;;;4.25;3.13;;;17.60;99.90;;;;;;4873193;29;20507;-89
2022/08/19 02:20:27;;;;;;;4.10;3.72;;;17.60;99.90;;;;;;4860713;29;20049;-88
2022/08/19 02:22:56;;;;;;;4.93;3.55;;;17.60;99.90;;;;;;4856541;29;20046;-89
2022/08/19 02:25:27;;;;;;;4.45;3.70;;;17.60;99.90;;;;;;4850593;29;20054;-85
2022/08/19 02:28:03;;;;;;;4.38;3.35;;;17.70;99.90;;;;;;4847729;29;20064;-91
2022/08/19 02:30:33;;;;;;;4.07;3.63;;;17.70;99.90;;;;;;4830873;29;20087;-83
2022/08/19 02:33:26;;;;;;;4.75;3.08;;;17.60;99.90;;;;;;4848556;29;20149;-87
2022/08/19 02:36:37;;;;;;;4.38;3.58;;;17.70;99.90;;;;;;4828718;29;20065;-87
2022/08/19 02:39:38;;;;;;;3.97;3.65;;;17.70;99.90;;;;;;4836263;29;20047;-87
2022/08/19 02:42:37;;;;;;;4.28;3.25;;;17.60;99.90;;;;;;4767375;30;20064;-88
2022/08/19 02:45:15;;;;;;;3.80;3.35;;;17.60;99.90;;;;;;4772893;29;21726;-86
2022/08/19 02:47:44;;;;;;;4.35;3.40;;;17.60;99.90;;;;;;4763379;30;20071;-91
2022/08/19 02:50:34;;;;;;;4.07;3.67;;;17.50;99.90;;;;;;4777608;29;20062;-88
2022/08/19 02:53:15;;;;;;;2.83;2.47;;;17.60;99.90;;;;;;4770714;29;20497;-88
2022/08/19 03:00:36;;;;;;;;;;;;;;;;;;;;;
2022/08/19 03:04:11;;;;;;;3.80;3.17;;;17.40;99.90;;;;;;4870968;29;20040;-88
2022/08/19 03:15:18;;;;;;;4.35;2.83;;;17.20;99.90;;;;;;4820760;29;20521;-86
2022/08/19 03:18:07;;;;;;;3.42;3.13;;;17.20;99.90;;;;;;4823534;29;20054;-88
2022/08/19 03:22:50;;;;;;;;;;;;;;;;;;;;;
2022/08/19 03:26:28;;;;;;;;;;;;;;;;;;;;;
2022/08/19 03:43:03;;;;;;;3.47;2.60;;;17.30;99.90;;;;;;4783891;29;20055;-88
2022/08/19 03:52:04;;;;;;;4.53;3.17;;;17.30;99.90;;;;;;4855784;29;20045;-85
2022/08/19 03:55:06;;;;;;;3.25;2.70;;;17.30;99.90;;;;;;4836437;29;20064;-87
2022/08/19 03:58:07;;;;;;;4.75;3.65;;;17.30;99.90;;;;;;4840374;29;20417;-87
2022/08/19 04:01:02;;;;;;;3.55;2.95;;;17.40;99.90;;;;;;4845989;29;20605;-87
2022/08/19 04:03:48;;;;;;;2.75;2.30;;;17.40;99.90;;;;;;4831708;29;20432;-86
2022/08/19 04:06:33;;;;;;;3.28;2.72;;;17.50;99.90;;;;;;4833300;29;20417;-88
2022/08/19 04:09:12;;;;;;;3.60;3.30;;;17.50;99.90;;;;;;4842158;29;20060;-87
2022/08/19 04:11:54;;;;;;;5.95;3.25;;;17.50;99.90;;;;;;4823780;29;20049;-88
2022/08/19 04:19:32;;;;;;;;;;;17.50;99.90;;;;;;4833861;29;20600;-87
2022/08/19 04:22:56;;;;;;;3.40;3.08;;;17.50;99.90;;;;;;4850702;29;19927;-89
2022/08/19 04:25:58;;;;;;;5.00;2.90;;;17.40;99.90;;;;;;4915120;29;20055;-87
2022/08/19 04:28:36;;;;;;;2.83;2.63;;;17.50;99.90;;;;;;4903167;29;20409;-88
2022/08/19 04:31:35;;;;;;;3.80;3.47;;;17.50;99.90;;;;;;4880724;29;20043;-87
2022/08/19 04:34:26;;;;;;;4.15;3.65;;;17.50;99.90;;;;;;4875667;29;20505;-87
2022/08/19 04:43:06;;;;;;;;;;;;;;;;;;;;;
2022/08/19 04:47:26;;;;;;;2.72;2.50;;;17.50;99.90;;;;;;4909524;29;20051;-86
2022/08/19 04:56:16;;;;;;;5.88;4.97;;;17.50;99.90;;;;;;4909322;29;20060;-86
2022/08/19 05:00:08;;;;;;;4.05;3.15;;;17.50;99.90;;;;;;5144863;23;20048;-86
2022/08/19 05:02:56;;;;;;;6.32;3.33;;;17.50;99.90;;;;;;4818438;29;20497;-87
2022/08/19 05:05:54;;;;;;;3.97;2.95;;;17.50;99.90;;;;;;4788018;29;20054;-87
2022/08/19 05:09:27;;;;;;;4.95;3.80;;;17.60;99.90;;;;;;4837511;29;20073;-88
2022/08/19 05:12:28;;;;;;;3.67;3.03;;;17.70;99.90;;;;;;4799188;29;20066;-88
2022/08/19 05:15:57;;;;;;;4.57;3.63;;;17.70;99.90;;;;;;4823131;29;20065;-87
2022/08/19 05:24:23;;;;;;;3.72;3.33;;;17.80;99.90;;;;;;4819453;29;20061;-86
2022/08/19 05:27:05;;;;;;;3.85;3.42;;;17.80;99.90;;;;;;4802339;29;20061;-86
2022/08/19 05:29:38;;;;;;;4.53;3.72;;;17.90;99.90;;;;;;4813427;29;20046;-87
2022/08/19 05:32:10;;;;;;;8.15;4.40;;;17.90;99.90;;;;;;4814558;29;20049;-88
2022/08/19 05:34:42;;;;;;;4.72;3.88;;;17.90;99.90;;;;;;4903628;29;20067;-88
2022/08/19 05:37:10;;;;;;;4.35;3.95;;;17.90;99.90;;;;;;4879049;29;20036;-87
2022/08/19 05:39:54;;;;;;;5.07;3.67;;;17.80;99.90;;;;;;4894103;29;20051;-88
2022/08/19 05:42:25;;;;;;;3.33;3.05;;;17.80;99.90;;;;;;4903473;29;20044;-88
2022/08/19 05:48:59;;;;;;;3.58;3.28;;;17.70;99.90;;;;;;4884288;29;20063;-87
2022/08/19 05:51:33;;;;;;;4.25;3.85;;;17.70;99.90;;;;;;4870317;29;20071;-87
2022/08/19 05:54:08;;;;;;;3.35;3.05;;;17.80;99.90;;;;;;4873803;29;20048;-87
2022/08/19 05:56:46;;;;;;;4.65;3.55;;;17.70;99.90;;;;;;4868954;29;20793;-88
2022/08/19 05:59:28;;;;;;;4.03;3.42;;;17.70;99.90;;;;;;4855300;29;20079;-88
2022/08/19 06:02:09;;;;;;;3.50;3.20;;;17.70;99.90;;;;;;4886237;29;20040;-86
2022/08/19 06:05:00;;;;;;;3.60;3.30;;;17.70;99.90;;;;;;4889972;28;20063;-88
2022/08/19 06:07:35;;;;;;;4.07;3.63;;;17.70;99.90;;;;;;4890012;29;20052;-87
2022/08/19 06:10:13;;;;;;;4.13;3.72;;;17.80;99.90;;;;;;4913258;29;20048;-87
2022/08/19 06:12:49;;;;;;;3.17;2.90;;;17.80;99.90;;;;;;4897803;29;20067;-88
2022/08/19 06:16:06;;;;;;;5.25;4.05;;;17.70;99.90;;;;;;4889849;29;20060;-88
2022/08/19 06:18:52;;;;;;;4.47;3.85;;;17.80;99.90;;;;;;4887491;29;20056;-88
2022/08/19 06:21:32;;;;;;;4.95;4.47;;;17.90;99.90;;;;;;4873266;29;20045;-89
2022/08/19 06:24:55;;;;;;;5.50;4.25;;;17.90;99.90;;;;;;4867749;29;20059;-89
2022/08/19 06:27:55;;;;;;;4.78;4.35;;;17.80;99.90;;;;;;4867269;29;20051;-88
2022/08/19 06:31:13;;;;;;;3.58;2.83;;;17.70;99.90;;;;;;4899733;29;20072;-89
2022/08/19 06:33:45;;;;;;;4.93;3.95;;;17.70;99.90;;;;;;4889733;29;20048;-87
2022/08/19 06:36:35;;;;;;;5.07;4.57;;;17.60;99.90;;;;;;4884028;29;20051;-87
2022/08/19 06:39:12;;;;;;;4.05;3.47;;;17.60;99.90;;;;;;4882734;29;20048;-87
2022/08/19 06:41:54;;;;;;;5.20;4.38;;;17.60;99.90;;;;;;4883964;29;20059;-88
2022/08/19 06:45:20;;;;;;;3.88;2.97;;;17.60;99.90;;;;;;4883352;29;20414;-87
2022/08/19 06:48:17;;;;;;;3.90;2.92;;;17.60;99.90;;;;;;4860355;29;20063;-88
2022/08/19 06:51:31;;;;;;;3.92;3.45;;;17.50;99.90;;;;;;4896682;29;20514;-89
2022/08/19 06:55:34;;;;;;;5.45;3.67;;;17.50;99.90;;;;;;4892465;29;20515;-89
2022/08/19 07:23:27;;;;;;;6.85;5.07;;;17.80;99.90;;;;;;4859673;29;20508;-90
2022/08/19 07:26:33;;;;;;;6.97;5.10;;;17.90;99.90;;;;;;4901181;29;20184;-89
2022/08/19 07:29:36;;;;;;;9.23;5.80;;;17.90;99.90;;;;;;4915985;28;20046;-90
2022/08/19 07:32:56;;;;;;;4.80;4.18;;;18.00;99.90;;;;;;4897257;28;20403;-87
2022/08/19 07:35:31;;;;;;;5.85;4.78;;;18.00;99.90;;;;;;4888626;29;20056;-87
2022/08/19 07:38:02;;;;;;;;;;;18.00;99.90;;;;;;4883891;28;20044;-86
2022/08/19 07:40:55;;;;;;;5.97;4.85;;;18.00;99.90;;;;;;4905367;29;19927;-88
2022/08/19 07:43:26;;;;;;;7.93;5.93;;;18.00;99.90;;;;;;4903217;29;20073;-87
2022/08/19 07:46:08;;;;;;;8.55;4.72;;;18.10;99.90;;;;;;4896971;29;20051;-86
2022/08/19 07:48:40;;;;;;;8.18;5.57;;;18.10;99.90;;;;;;4917506;29;20048;-86
2022/08/19 07:51:38;;;;;;;6.80;5.93;;;18.20;99.90;;;;;;4902955;29;20054;-87
2022/08/19 07:54:19;;;;;;;7.45;5.60;;;18.20;99.90;;;;;;4911250;29;20052;-88
2022/08/19 08:18:19;;;;;;;;;;;;;;;;;;;;;
2022/08/19 08:25:48;;;;;;;10.48;7.30;;;18.00;99.90;;;;;;4820547;29;20943;-86
2022/08/19 08:28:30;;;;;;;8.45;6.78;;;18.00;99.90;;;;;;4806245;29;20065;-87
2022/08/19 08:31:02;;;;;;;8.10;6.00;;;18.00;99.90;;;;;;4803172;29;20049;-84
2022/08/19 08:33:36;;;;;;;10.57;8.13;;;18.00;99.90;;;;;;4833443;29;20057;-84
2022/08/19 08:36:33;;;;;;;6.97;5.70;;;18.00;99.90;;;;;;4815852;29;20050;-84
2022/08/19 08:39:16;;;;;;;9.43;7.18;;;18.10;99.90;;;;;;4816513;29;20060;-87
2022/08/19 08:41:57;;;;;;;8.32;6.88;;;18.10;99.90;;;;;;4834291;29;20420;-85
2022/08/19 08:44:36;;;;;;;8.32;6.50;;;18.10;99.90;;;;;;4837160;29;20050;-87
2022/08/19 08:47:12;;;;;;;9.95;6.22;;;18.10;99.90;;;;;;4819708;29;20481;-87
2022/08/19 08:49:49;;;;;;;8.02;6.15;;;18.10;99.90;;;;;;4836040;29;20042;-84
2022/08/19 08:52:29;;;;;;;9.02;6.93;;;18.10;99.90;;;;;;4822657;29;20053;-86
2022/08/19 08:55:06;;;;;;;6.57;5.32;;;18.10;99.90;;;;;;4803213;29;20046;-87
2022/08/19 08:57:44;;;;;;;9.52;6.90;;;18.20;99.90;;;;;;4822565;29;20046;-86
2022/08/19 09:00:19;;;;;;;8.85;6.57;;;18.10;99.90;;;;;;4836652;29;20058;-89
2022/08/19 09:03:02;;;;;;;12.50;6.18;;;18.10;99.90;;;;;;4820059;29;20054;-88
2022/08/19 09:05:55;;;;;;;11.00;6.43;;;18.00;99.90;;;;;;4806607;29;20062;-84
2022/08/19 09:08:48;;;;;;;7.65;6.35;;;17.80;99.90;;;;;;4835929;29;20054;-84
2022/08/19 09:11:33;;;;;;;12.05;6.60;;;17.80;99.90;;;;;;4837122;29;21812;-83
2022/08/19 09:14:15;;;;;;;12.73;6.43;;;17.80;99.90;;;;;;4836190;29;20050;-82
2022/08/19 09:17:09;;;;;;;12.57;7.90;;;17.80;99.90;;;;;;4835583;29;20053;-82
2022/08/19 09:19:53;;;;;;;;;;;17.80;99.90;;;;;;4840583;29;20489;-82
2022/08/19 09:22:23;;;;;;;11.60;6.78;;;17.90;99.90;;;;;;4819153;29;20481;-81
2022/08/19 09:24:57;;;;;;;8.35;5.75;;;17.90;99.90;;;;;;4821262;29;20501;-81
2022/08/19 09:27:32;;;;;;;14.10;9.80;;;17.90;99.90;;;;;;4821197;29;20054;-82
2022/08/19 09:30:21;;;;;;;6.30;5.55;;;17.80;99.90;;;;;;4805885;29;20061;-82
2022/08/19 09:32:52;;;;;;;7.80;7.05;;;18.00;99.90;;;;;;4820839;29;20049;-83
2022/08/19 09:35:21;;;;;;;;;;;18.00;99.90;;;;;;4837565;29;20081;-83
2022/08/19 09:37:51;;;;;;;12.52;7.70;;;18.00;99.90;;;;;;4836923;29;19928;-82
2022/08/19 09:40:30;;;;;;;8.82;6.43;;;18.10;99.90;;;;;;4838190;29;20057;-82
2022/08/19 09:43:20;;;;;;;9.38;6.30;;;18.20;99.90;;;;;;4834719;29;20053;-82
2022/08/19 09:46:01;;;;;;;9.45;8.48;;;18.40;99.90;;;;;;4839894;29;20050;-81
2022/08/19 09:48:29;;;;;;;11.07;8.02;;;18.30;99.90;;;;;;4823646;29;20062;-82
2022/08/19 09:51:07;;;;;;;10.40;8.23;;;18.30;99.90;;;;;;4824276;29;20057;-81
2022/08/19 09:53:38;;;;;;;;;;;18.30;99.90;;;;;;4841486;29;20481;-82
2022/08/19 09:56:06;;;;;;;10.05;8.85;;;18.40;99.90;;;;;;4827416;29;20616;-82
2022/08/19 09:58:37;;;;;;;13.48;8.05;;;18.50;99.90;;;;;;4836771;29;20070;-82
2022/08/19 10:01:06;;;;;;;12.38;8.77;;;18.60;99.90;;;;;;4840355;29;20050;-83
2022/08/19 10:03:36;;;;;;;15.02;9.52;;;18.80;99.90;;;;;;4840159;29;20045;-84
2022/08/19 10:06:05;;;;;;;9.70;7.25;;;18.80;99.90;;;;;;4832917;29;20054;-84
2022/08/19 10:08:41;;;;;;;14.93;8.93;;;18.90;99.90;;;;;;4838892;29;20049;-85
2022/08/19 10:11:18;;;;;;;10.60;7.97;;;19.10;99.90;;;;;;4839574;29;20061;-83
2022/08/19 10:14:02;;;;;;;9.85;7.00;;;19.10;99.90;;;;;;4838912;29;20054;-83
2022/08/19 10:16:30;;;;;;;7.28;6.43;;;19.20;99.90;;;;;;4834838;29;20053;-85
2022/08/19 10:19:06;;;;;;;10.00;6.50;;;19.20;99.90;;;;;;4837404;29;20053;-84
2022/08/19 10:21:36;;;;;;;6.95;6.15;;;19.20;99.90;;;;;;4838477;29;20050;-85
2022/08/19 10:24:07;;;;;;;7.68;6.88;;;19.30;99.90;;;;;;4837795;29;20413;-86
2022/08/19 10:26:41;;;;;;;8.43;7.43;;;19.30;99.90;;;;;;4823547;29;20104;-85
2022/08/19 10:29:15;;;;;;;6.32;5.70;;;19.40;99.90;;;;;;4825619;29;20140;-86
2022/08/19 10:32:45;;;;;;;9.30;7.63;;;19.30;99.90;;;;;;4827689;29;20542;-88
2022/08/19 10:35:17;;;;;;;10.18;7.53;;;19.30;99.90;;;;;;4839772;29;20062;-86
2022/08/19 10:38:01;;;;;;;7.07;5.70;;;19.20;99.90;;;;;;4811029;29;20395;-88
2022/08/19 10:40:30;;;;;;;8.38;5.50;;;19.40;99.90;;;;;;4817567;29;20050;-90
2022/08/19 10:43:40;;;;;;;9.05;7.53;;;19.50;99.90;;;;;;4810127;29;20049;-89
2022/08/19 10:46:20;;;;;;;9.05;7.05;;;19.60;99.90;;;;;;4826631;29;20057;-88
2022/08/19 10:54:15;;;;;;;9.57;8.65;;;19.90;99.90;;;;;;4805615;29;20053;-90
2022/08/19 11:02:30;;;;;;;;;;;;;;;;;;;;;
2022/08/19 11:06:04;;;;;;;8.95;7.30;;;20.60;99.90;;;;;;4787881;29;20046;-88
2022/08/19 11:13:17;;;;;;;8.80;6.78;;;20.10;99.90;;;;;;4747785;29;20044;-89
2022/08/19 11:17:19;;;;;;;10.23;8.25;;;19.90;99.90;;;;;;4718036;30;20442;-90
2022/08/19 11:21:23;;;;;;;7.25;6.55;;;20.00;99.90;;;;;;4673280;30;20049;-90
2022/08/19 11:24:06;;;;;;;10.27;7.70;;;19.90;99.90;;;;;;4693485;30;20057;-89
2022/08/19 11:26:49;;;;;;;8.60;6.97;;;20.10;99.90;;;;;;4741359;29;20046;-89
2022/08/19 11:30:45;;;;;;;10.75;8.25;;;20.50;99.90;;;;;;4792052;29;20124;-89
2022/08/19 11:33:18;;;;;;;9.00;7.45;;;20.60;99.90;;;;;;4765557;29;20630;-86
2022/08/19 11:35:54;;;;;;;13.30;9.32;;;20.70;99.90;;;;;;4783244;29;20111;-89
2022/08/19 11:39:22;;;;;;;13.50;10.82;;;20.90;99.90;;;;;;4786903;29;20061;-88
2022/08/19 11:46:06;;;;;;;11.05;9.32;;;21.00;99.90;;;;;;4830906;29;20076;-88
2022/08/19 11:48:50;;;;;;;15.38;8.30;;;20.90;99.90;;;;;;4806728;29;20824;-87
2022/08/19 11:51:42;;;;;;;7.10;6.35;;;20.70;99.90;;;;;;4796801;29;20058;-86
2022/08/19 11:54:20;;;;;;;8.55;6.78;;;20.60;99.90;;;;;;4820094;29;20065;-87
2022/08/19 11:57:21;;;;;;;;;;;20.50;99.90;;;;;;4804400;29;20053;-88
2022/08/19 12:00:13;;;;;;;8.75;6.80;;;20.70;99.90;;;;;;4807095;29;20375;-88
2022/08/19 12:02:46;;;;;;;9.25;7.32;;;20.60;99.90;;;;;;4819705;29;20059;-87
2022/08/19 12:05:14;;;;;;;9.82;8.23;;;20.40;99.90;;;;;;4837400;29;20056;-87
2022/08/19 12:07:45;;;;;;;9.77;7.32;;;20.50;99.90;;;;;;4807883;29;20052;-91
2022/08/19 12:10:46;;;;;;;8.30;5.63;;;20.60;99.90;;;;;;4832369;29;20420;-90
2022/08/19 12:13:18;;;;;;;11.55;6.93;;;20.50;99.90;;;;;;4834068;29;20045;-89
2022/08/19 12:15:47;;;;;;;8.07;7.28;;;20.50;99.90;;;;;;4826261;29;20392;-88
2022/08/19 12:18:15;;;;;;;7.45;6.13;;;20.70;99.90;;;;;;4824099;29;20504;-88
2022/08/19 12:20:45;;;;;;;6.35;5.75;;;20.70;99.90;;;;;;4823092;29;20416;-87
2022/08/19 12:23:16;;;;;;;7.47;6.72;;;20.80;99.90;;;;;;4844503;29;20061;-88
2022/08/19 12:25:49;;;;;;;6.78;5.63;;;21.20;99.90;;;;;;4839516;29;20495;-85
2022/08/19 12:28:22;;;;;;;8.50;6.63;;;21.00;99.90;;;;;;4846477;29;20131;-87
2022/08/19 12:30:52;;;;;;;8.05;6.53;;;21.00;99.90;;;;;;4815529;29;20042;-89
2022/08/19 12:33:31;;;;;;;7.32;6.57;;;21.00;99.90;;;;;;4835862;29;20056;-86
2022/08/19 12:41:21;;;;;;;9.07;6.57;;;20.70;99.90;;;;;;4825446;29;20050;-92
2022/08/19 12:44:12;;;;;;;8.75;6.78;;;20.50;99.90;;;;;;4798871;29;20074;-89
2022/08/19 12:46:44;;;;;;;8.60;6.43;;;20.50;99.90;;;;;;4792933;29;20051;-89
2022/08/19 12:49:12;;;;;;;6.95;6.25;;;20.40;99.90;;;;;;4811138;29;20861;-87
2022/08/19 12:52:08;;;;;;;9.93;7.50;;;20.20;99.90;;;;;;4827323;29;20077;-89
2022/08/19 12:54:58;;;;;;;10.13;7.78;;;20.10;99.90;;;;;;4829524;29;20062;-89
2022/08/19 13:46:34;;;;;;;2.40;2.20;;;20.60;99.90;;;;;;4750271;29;20067;-89
2022/08/19 13:49:25;;;;;;;2.55;2.35;;;20.80;99.90;;;;;;4735707;29;20057;-86
2022/08/19 13:54:17;;;;;;;2.70;2.50;;;20.90;99.90;;;;;;4719921;30;20505;-89
2022/08/19 14:11:22;;;;;;;1.63;1.52;;;21.60;99.90;;;;;;4713390;30;20049;-83
2022/08/19 14:13:50;;;;;;;2.17;1.23;;;21.50;99.90;;;;;;4725666;30;20051;-82
2022/08/19 14:16:18;;;;;;;1.30;1.10;;;21.50;99.90;;;;;;4731459;30;20068;-81
2022/08/19 14:18:49;;;;;;;1.35;1.10;;;21.50;99.90;;;;;;4730656;30;20064;-82
2022/08/19 14:21:40;;;;;;;1.67;1.17;;;21.40;99.90;;;;;;4731194;30;20778;-84
2022/08/19 14:24:09;;;;;;;1.20;1.10;;;21.20;99.90;;;;;;4731090;30;20099;-84
2022/08/19 14:26:39;;;;;;;1.30;1.20;;;21.00;99.90;;;;;;4714379;30;20057;-83
2022/08/19 14:29:09;;;;;;;3.58;1.40;;;20.90;99.90;;;;;;4715632;30;20052;-83
2022/08/19 14:31:40;;;;;;;1.25;1.15;;;20.90;99.90;;;;;;4731047;30;20076;-81
2022/08/19 14:37:32;;;;;;;1.33;1.23;;;20.90;99.90;;;;;;4760851;29;20064;-85
2022/08/19 15:00:51;;;;;;;;;;;;;;;;;;;;;
2022/08/19 15:05:16;;;;;;;1.33;1.23;;;20.30;99.90;;;;;;4779112;30;20058;-89
2022/08/19 15:08:11;;;;;;;3.60;1.88;;;20.50;99.90;;;;;;4757919;29;20055;-85
2022/08/19 15:11:39;;;;;;;1.38;1.27;;;20.60;99.90;;;;;;4813689;29;20066;-88
2022/08/19 15:24:08;;;;;;;3.95;1.92;;;20.40;99.90;;;;;;4736009;30;20076;-89
2022/08/19 15:26:44;;;;;;;5.38;2.25;;;20.40;99.90;;;;;;4803786;29;20061;-83
2022/08/19 15:29:15;;;;;;;2.20;2.00;;;20.50;99.90;;;;;;4786732;29;20766;-83
2022/08/19 15:31:56;;;;;;;;;;;20.40;99.90;;;;;;4776352;29;20081;-88
2022/08/19 15:34:48;;;;;;;1.85;1.60;;;20.40;99.90;;;;;;4818133;29;20364;-88
2022/08/19 15:37:43;;;;;;;2.63;2.42;;;20.30;99.90;;;;;;4792232;29;20055;-85
2022/08/19 15:41:22;;;;;;;2.22;2.00;;;20.20;99.90;;;;;;4791088;29;20485;-85
2022/08/19 15:44:26;;;;;;;2.55;1.75;;;20.20;99.90;;;;;;4789205;29;20050;-86
2022/08/19 15:51:08;;;;;;;;;;;;;;;;;;;;;
2022/08/19 15:54:07;;;;;;;2.85;2.65;;;20.10;99.90;;;;;;4795100;29;20074;-82
2022/08/19 16:09:35;;;;;;;2.53;2.33;;;20.10;99.90;;;;;;4804668;29;20065;-85
2022/08/19 16:12:15;;;;;;;2.97;2.65;;;20.00;99.90;;;;;;4815398;29;20061;-86
2022/08/19 16:15:33;;;;;;;2.50;2.30;;;20.00;99.90;;;;;;4807814;29;20058;-88
2022/08/19 16:18:17;;;;;;;4.65;2.47;;;19.90;99.90;;;;;;4803010;29;20046;-85
2022/08/19 16:21:16;;;;;;;2.13;1.95;;;19.80;99.90;;;;;;4795153;29;20471;-88
2022/08/19 16:24:06;;;;;;;3.08;2.75;;;19.80;99.90;;;;;;4802834;29;20104;-86
2022/08/19 16:27:00;;;;;;;3.35;2.90;;;19.80;99.90;;;;;;4792134;29;20353;-87
2022/08/19 16:33:51;;;;;;;3.83;3.38;;;19.80;99.90;;;;;;4815097;29;20062;-87
2022/08/19 16:36:23;;;;;;;4.32;3.70;;;19.70;99.90;;;;;;4795297;29;20073;-82
2022/08/19 16:39:00;;;;;;;3.85;3.45;;;19.70;99.90;;;;;;4790958;29;20051;-80
2022/08/19 16:41:40;;;;;;;4.80;3.95;;;19.60;99.90;;;;;;4796046;29;20050;-85
2022/08/19 16:44:41;;;;;;;5.72;5.18;;;19.50;99.90;;;;;;4788477;29;20050;-83
2022/08/19 16:47:27;;;;;;;3.80;3.50;;;19.30;99.90;;;;;;4780723;29;20413;-88
2022/08/19 16:50:28;;;;;;;5.47;4.93;;;19.20;99.90;;;;;;4743098;30;20409;-87
2022/08/19 16:53:44;;;;;;;4.15;3.35;;;19.10;99.90;;;;;;4753341;29;20063;-87
2022/08/19 16:56:30;;;;;;;3.97;3.50;;;19.00;99.90;;;;;;4789784;24;20054;-87
2022/08/19 16:59:33;;;;;;;6.93;5.60;;;19.00;99.90;;;;;;4786488;29;20050;-86
2022/08/19 17:02:52;;;;;;;4.88;4.25;;;18.90;99.90;;;;;;4827382;24;20531;-83
2022/08/19 17:05:27;;;;;;;6.53;4.40;;;18.90;99.90;;;;;;4810106;29;20049;-91
2022/08/19 17:11:47;;;;;;;8.07;6.00;;;18.80;99.90;;;;;;4798203;29;20050;-90
2022/08/19 17:14:31;;;;;;;5.05;4.40;;;18.80;99.90;;;;;;4813522;29;20046;-87
2022/08/19 17:21:39;;;;;;;9.18;4.03;;;18.80;99.90;;;;;;4794862;29;20038;-90
2022/08/19 17:25:06;;;;;;;4.15;3.63;;;18.70;99.90;;;;;;4795584;29;20364;-87
2022/08/19 17:27:33;;;;;;;5.72;4.38;;;18.80;99.90;;;;;;4795211;29;20050;-86
2022/08/19 17:30:08;;;;;;;4.25;3.53;;;18.70;99.90;;;;;;4762928;29;20054;-84
2022/08/19 17:32:36;;;;;;;3.75;3.45;;;18.70;99.90;;;;;;4783477;29;20055;-87
2022/08/19 17:35:04;;;;;;;3.88;3.58;;;18.60;99.90;;;;;;4777823;29;20058;-88
2022/08/19 17:37:34;;;;;;;2.92;2.63;;;18.60;99.90;;;;;;4776749;29;20492;-87
2022/08/19 17:40:07;;;;;;;5.15;4.22;;;18.60;99.90;;;;;;4762786;29;20179;-87
2022/08/19 17:42:35;;;;;;;3.70;2.78;;;18.60;99.90;;;;;;4803416;29;20054;-87
2022/08/19 17:45:05;;;;;;;3.65;3.35;;;18.50;99.90;;;;;;4801901;29;20490;-86
2022/08/19 17:47:34;;;;;;;6.65;4.43;;;18.50;99.90;;;;;;4778371;29;20114;-86
2022/08/19 17:50:14;;;;;;;3.72;3.42;;;18.40;99.90;;;;;;4798952;29;20747;-86
2022/08/19 17:53:16;;;;;;;3.72;2.88;;;18.40;99.90;;;;;;4933657;24;20065;-87
2022/08/19 18:01:15;;;;;;;3.53;2.80;;;18.40;99.90;;;;;;5046515;24;20091;-89
2022/08/19 18:04:11;;;;;;;3.60;3.30;;;18.40;99.90;;;;;;4837851;29;20061;-89
2022/08/19 18:26:34;;;;;;;4.22;3.10;;;18.10;99.90;;;;;;4825021;29;20061;-88
2022/08/19 18:33:24;;;;;;;3.15;2.85;;;18.10;99.90;;;;;;4818487;29;20058;-88
2022/08/19 18:36:15;;;;;;;3.05;2.67;;;18.00;99.90;;;;;;4724594;30;20059;-87
2022/08/19 18:49:51;;;;;;;3.05;2.85;;;18.10;99.90;;;;;;4813124;29;20511;-86
2022/08/19 18:52:47;;;;;;;;;;;18.00;99.90;;;;;;4802125;29;20054;-89
2022/08/19 18:55:58;;;;;;;2.55;2.35;;;18.00;99.90;;;;;;4784067;29;20393;-89
2022/08/19 18:58:40;;;;;;;2.65;1.95;;;18.00;99.90;;;;;;4803949;29;20503;-86
2022/08/19 19:01:53;;;;;;;2.80;1.98;;;18.00;99.90;;;;;;4812266;29;20551;-87
2022/08/19 19:05:01;;;;;;;2.03;1.92;;;18.00;99.90;;;;;;4815852;29;20050;-87
2022/08/19 19:08:31;;;;;;;4.18;3.30;;;17.90;99.90;;;;;;4783165;29;20059;-87
2022/08/19 19:14:53;;;;;;;3.30;2.25;;;17.90;99.90;;;;;;4797810;29;20409;-92
2022/08/19 19:22:25;;;;;;;2.10;1.90;;;17.80;99.90;;;;;;5463639;23;20506;-86
2022/08/19 19:32:37;;;;;;;3.05;2.83;;;17.70;99.90;;;;;;5703727;24;20327;-89
2022/08/19 19:46:16;;;;;;;3.55;3.25;;;17.70;99.90;;;;;;4810416;29;20058;-88
2022/08/19 19:49:07;;;;;;;5.03;3.03;;;17.60;99.90;;;;;;4813900;29;20384;-86
2022/08/19 19:51:50;;;;;;;3.70;3.22;;;17.40;99.90;;;;;;4852295;24;20430;-87
2022/08/19 19:54:19;;;;;;;4.40;4.00;;;17.20;99.90;;;;;;4830969;29;20551;-89
2022/08/19 19:56:50;;;;;;;4.35;3.53;;;17.10;99.90;;;;;;4802367;29;20058;-84
2022/08/19 19:59:24;;;;;;;6.20;4.03;;;17.00;99.90;;;;;;4817496;29;20058;-82
2022/08/19 20:01:54;;;;;;;4.32;3.92;;;16.80;99.90;;;;;;4809862;29;20519;-83
2022/08/19 20:04:26;;;;;;;4.45;4.05;;;16.70;99.90;;;;;;4796807;29;20061;-81
2022/08/19 20:06:54;;;;;;;6.03;4.68;;;16.60;99.90;;;;;;4823085;29;20046;-81
2022/08/19 20:09:21;;;;;;;5.18;4.70;;;16.60;99.90;;;;;;4832742;29;20050;-81
2022/08/19 20:12:09;;;;;;;7.70;6.07;;;16.50;99.90;;;;;;4830622;29;20061;-81
2022/08/19 20:14:43;;;;;;;7.95;6.95;;;16.40;99.90;;;;;;4833227;29;20042;-82
2022/08/19 20:17:10;;;;;;;10.68;6.40;;;16.40;99.90;;;;;;4833137;29;20134;-82
2022/08/19 20:19:38;;;;;;;5.70;5.05;;;16.40;99.90;;;;;;4829619;29;20045;-83
2022/08/19 20:22:06;;;;;;;5.65;5.15;;;16.40;99.90;;;;;;4805133;29;20357;-81
2022/08/19 20:24:35;;;;;;;7.13;6.22;;;16.30;99.90;;;;;;4832456;29;20050;-82
2022/08/19 20:27:03;;;;;;;6.70;5.93;;;16.30;99.90;;;;;;4830533;29;20046;-82
2022/08/19 20:29:31;;;;;;;7.40;5.90;;;16.30;99.90;;;;;;4798664;29;20587;-82
2022/08/19 20:32:09;;;;;;;8.48;6.80;;;16.20;99.90;;;;;;4811508;29;20054;-81
2022/08/19 20:34:38;;;;;;;7.00;6.22;;;16.20;99.90;;;;;;4802829;29;20408;-80
2022/08/19 20:37:07;;;;;;;10.57;7.13;;;16.20;99.90;;;;;;4831933;29;20054;-80
2022/08/19 20:39:36;;;;;;;7.78;6.38;;;16.20;99.90;;;;;;4832756;29;20053;-79
2022/08/19 20:42:04;;;;;;;9.73;7.00;;;16.30;99.90;;;;;;4829853;29;20511;-79
2022/08/19 20:44:33;;;;;;;11.93;9.68;;;16.20;99.90;;;;;;4830469;29;20057;-79